Nearby METAR Reports

 

KCMH - Columbus, Ohio, USA
Distance from station: SW 5mi, 8km
Updated: Sun, 22-Apr-2018 11:51am EDT
Overcast
Overcast
 Wind from NE
Wind: NE 8 mph , 13 km/h
Temperature: 61°F , 16°C
Dew Point: 28°F , -2°C
Humidity: 29%
Barometer: 30.32 inHg , 1026.8 hPa
Clouds: Overcast
Visibility: 10 miles , 16 km
Cloud details: Partly cloudy 15000 ft
Overcast 20000 ft
2018/04/22 15:51 KCMH 221551Z 05007KT 020V100 10SM SCT150 OVC200 16/M02 A3032 RMK AO2 SLP266 T01611017
KOSU - Columbus/St Univ, Ohio, USA
Distance from station: W 14mi, 23km
Updated: Sun, 22-Apr-2018 11:53am EDT
Clear
Clear
 Wind from NE
Wind: NE 9 mph , 15 km/h, Gust: 18 mph , 30 km/h
Temperature: 59°F , 15°C
Dew Point: 30°F , -1°C
Humidity: 34%
Barometer: 30.32 inHg , 1026.8 hPa
Clouds: Clear
Visibility: 10 miles , 16 km
2018/04/22 15:53 KOSU 221553Z 04008G16KT 10SM CLR 15/M01 A3032 RMK AO2 SLP268 T01501011
 
KLCK - Rickenbacker Ang, Ohio, USA
Distance from station: SSW 17mi, 27km
Updated: Sun, 22-Apr-2018 11:55am EDT
Clear
Clear
 Wind from NE
Wind: NE 9 mph , 15 km/h
Temperature: 57°F , 14°C
Dew Point: 32°F , 0°C
Humidity: 39%
Barometer: 30.31 inHg , 1026.4 hPa
Clouds: Clear
Visibility: 10 miles , 16 km
2018/04/22 15:55 KLCK 221555Z AUTO 05008KT 10SM CLR 14/00 A3031 RMK AO2 T01371003
KVTA - Newark, Ohio, USA
Distance from station: E 19mi, 30km
Updated: Sun, 22-Apr-2018 11:54am EDT
Clear
Clear
 Wind from ENE
Wind: ENE 9 mph , 15 km/h
Temperature: 59°F , 15°C
Dew Point: 30°F , -1°C
Humidity: 34%
Barometer: 30.31 inHg , 1026.4 hPa
Clouds: Clear
Visibility: 10 miles , 16 km
2018/04/22 15:54 KVTA 221554Z AUTO 07008KT 10SM CLR 15/M01 A3031 RMK AO2 SLP265 T01501006
 
KTZR - Columbus/Bolton, Ohio, USA
Distance from station: WSW 20mi, 31km
Updated: Sun, 22-Apr-2018 11:45am EDT
Clear
Clear
 Wind from ENE
Wind: ENE 7 mph , 11 km/h
Temperature: 57°F , 14°C
Dew Point: 32°F , 0°C
Humidity: 39%
Barometer: 30.32 inHg , 1026.8 hPa
Clouds: Clear
Visibility: 10 miles , 16 km
2018/04/22 15:45 KTZR 221545Z 07006KT 10SM SKC 14/00 A3032
KLHQ - Lancaster, Ohio, USA
Distance from station: SSE 22mi, 36km
Updated: Sun, 22-Apr-2018 11:53am EDT
Clear
Clear
 Wind from NE
Wind: NE 8 mph , 13 km/h
Temperature: 57°F , 14°C
Dew Point: 36°F , 2°C
Humidity: 44%
Barometer: 30.32 inHg , 1026.8 hPa
Clouds: Clear
Visibility: 10 miles , 16 km
2018/04/22 15:53 KLHQ 221553Z AUTO 05007KT 10SM CLR 14/02 A3032 RMK AO2 SLP266 T01440017
 
KDLZ - Delaware, Ohio, USA
Distance from station: NW 23mi, 36km
Updated: Sun, 22-Apr-2018 11:56am EDT
Clear
Clear
 Wind from NE
Wind: NE 10 mph , 17 km/h
Temperature: 57°F , 14°C
Dew Point: 30°F , -1°C
Humidity: 36%
Barometer: 30.33 inHg , 1027.1 hPa
Clouds: Clear
Visibility: 10 miles , 16 km
2018/04/22 15:56 KDLZ 221556Z AUTO 05009KT 024V084 10SM CLR 14/M01 A3033 RMK AO2
K4I3 - Mt Vernon/Knox, Ohio, USA
Distance from station: NE 25mi, 40km
Updated: Sun, 22-Apr-2018 11:57am EDT
Clear
Clear
 Wind from ENE
Wind: ENE 10 mph , 17 km/h
Temperature: 57°F , 14°C
Dew Point: 32°F , 0°C
Humidity: 39%
Barometer: 30.34 inHg , 1027.4 hPa
Clouds: Clear
Visibility: 10 miles , 16 km
2018/04/22 15:57 K4I3 221557Z AUTO 06009KT 10SM CLR 14/00 A3034 RMK AO2
 
KMRT - Marysville, Ohio, USA
Distance from station: WNW 30mi, 49km
Updated: Sun, 22-Apr-2018 11:55am EDT
Clear
Clear
 Wind from ENE
Wind: ENE 9 mph , 15 km/h
Temperature: 59°F , 15°C
Dew Point: 32°F , 0°C
Humidity: 36%
Barometer: 30.33 inHg , 1027.1 hPa
Clouds: Clear
Visibility: 10 miles , 16 km
2018/04/22 15:55 KMRT 221555Z AUTO 07008KT 10SM CLR 15/00 A3033 RMK AO2 T01471002
KMNN - Marion, Ohio, USA
Distance from station: NNW 41mi, 67km
Updated: Sun, 22-Apr-2018 11:53am EDT
Clear
Clear
 Wind from E
Wind: E 8 mph , 13 km/h
Temperature: 57°F , 14°C
Dew Point: 27°F , -3°C
Humidity: 31%
Barometer: 30.34 inHg , 1027.4 hPa
Clouds: Clear
Visibility: 10 miles , 16 km
2018/04/22 15:53 KMNN 221553Z AUTO 08007KT 10SM CLR 14/M03 A3034 RMK AO2 SLP279 T01391033
 
KZZV - Zanesville, Ohio, USA
Distance from station: E 49mi, 79km
Updated: Sun, 22-Apr-2018 11:53am EDT
Clear
Clear
 Wind from varies
Wind: varies 5 mph , 7 km/h
Temperature: 61°F , 16°C
Dew Point: 30°F , -1°C
Humidity: 31%
Barometer: 30.31 inHg , 1026.4 hPa
Clouds: Clear
Visibility: 10 miles , 16 km
2018/04/22 15:53 KZZV 221553Z AUTO VRB04KT 10SM CLR 16/M01 A3031 RMK AO2 SLP265 T01611006